createdAt,value
2018-07-31T00:00:46.815Z,32.50
2018-07-31T00:03:15.425Z,32.50
2018-07-31T00:05:43.870Z,33.20
2018-07-31T00:08:13.351Z,32.50
2018-07-31T00:10:41.999Z,32.50
2018-07-31T00:13:10.451Z,32.50
2018-07-31T00:15:38.957Z,32.40
2018-07-31T00:18:07.391Z,32.50
2018-07-31T00:20:36.724Z,32.40
2018-07-31T00:23:05.716Z,32.50
2018-07-31T00:25:34.189Z,32.50
2018-07-31T00:28:02.670Z,32.50
2018-07-31T00:30:31.052Z,32.50
2018-07-31T00:33:00.792Z,32.60
2018-07-31T00:35:29.266Z,32.70
2018-07-31T00:37:57.913Z,32.60
2018-07-31T00:40:26.389Z,33.20
2018-07-31T00:42:55.010Z,32.50
2018-07-31T00:45:23.488Z,32.50
2018-07-31T00:47:51.919Z,32.50
2018-07-31T00:50:20.309Z,32.50
2018-07-31T00:52:48.795Z,32.50
2018-07-31T00:55:17.979Z,32.50
2018-07-31T00:57:46.818Z,32.60
2018-07-31T01:00:15.256Z,32.60
2018-07-31T01:02:43.753Z,32.60
2018-07-31T01:05:12.185Z,32.60
2018-07-31T01:07:40.800Z,32.50
2018-07-31T01:10:10.940Z,32.50
2018-07-31T01:12:39.393Z,32.60
2018-07-31T01:15:07.978Z,32.50
2018-07-31T01:17:36.561Z,32.50
2018-07-31T01:20:06.306Z,32.50
2018-07-31T01:22:35.250Z,32.50
2018-07-31T01:25:03.730Z,32.50
2018-07-31T01:27:32.438Z,32.50
2018-07-31T01:30:00.856Z,32.50
2018-07-31T01:32:29.511Z,32.50
2018-07-31T01:34:58.585Z,32.50
2018-07-31T01:37:27.126Z,32.40
2018-07-31T01:39:57.367Z,32.50
2018-07-31T01:42:25.878Z,32.40
2018-07-31T01:44:54.311Z,32.50
2018-07-31T01:47:23.151Z,32.40
2018-07-31T01:49:52.797Z,32.40
2018-07-31T01:52:21.444Z,32.40
2018-07-31T01:54:50.211Z,32.40
2018-07-31T01:57:18.845Z,32.40
2018-07-31T01:59:51.379Z,32.40
2018-07-31T02:02:20.147Z,32.40
2018-07-31T02:04:48.696Z,32.40
2018-07-31T02:07:17.122Z,32.30
2018-07-31T02:09:45.718Z,32.40
2018-07-31T02:12:15.087Z,32.30
2018-07-31T02:14:43.585Z,32.30
2018-07-31T02:17:12.153Z,32.40
2018-07-31T02:19:40.596Z,32.30
2018-07-31T02:22:12.328Z,32.40
2018-07-31T02:24:42.426Z,32.30
2018-07-31T02:27:10.883Z,32.40
2018-07-31T02:29:44.634Z,32.30
2018-07-31T02:32:13.064Z,32.30
2018-07-31T02:34:41.931Z,32.30
2018-07-31T02:37:10.648Z,32.30
2018-07-31T02:39:39.146Z,32.20
2018-07-31T02:42:07.620Z,32.20
2018-07-31T02:44:36.015Z,32.40
2018-07-31T02:47:04.572Z,32.50
2018-07-31T02:49:32.971Z,33.00
2018-07-31T02:54:31.320Z,32.20
2018-07-31T02:56:59.808Z,32.20
2018-07-31T02:59:28.175Z,32.40
2018-07-31T03:01:56.640Z,32.20
2018-07-31T03:04:25.278Z,32.20
2018-07-31T03:06:53.744Z,32.30
2018-07-31T03:09:22.518Z,32.30
2018-07-31T03:11:51.082Z,32.40
2018-07-31T03:14:19.516Z,32.40
2018-07-31T03:16:48.634Z,32.40
2018-07-31T03:19:17.139Z,32.40
2018-07-31T03:21:45.715Z,32.40
2018-07-31T03:24:14.317Z,32.30
2018-07-31T03:26:42.768Z,32.50
2018-07-31T03:29:12.822Z,32.60
2018-07-31T03:31:41.579Z,32.80
2018-07-31T03:34:10.664Z,32.20
2018-07-31T03:36:39.078Z,32.30
2018-07-31T03:39:08.708Z,32.40
2018-07-31T03:44:08.291Z,33.00
2018-07-31T03:46:36.638Z,33.20
2018-07-31T03:49:05.375Z,33.20
2018-07-31T03:51:33.955Z,33.00
2018-07-31T03:54:02.410Z,33.20
2018-07-31T03:56:30.952Z,33.10
2018-07-31T03:58:59.413Z,33.20
2018-07-31T04:01:27.866Z,33.30
2018-07-31T04:03:56.383Z,33.20
2018-07-31T04:06:25.982Z,33.20
2018-07-31T04:08:54.454Z,33.30
2018-07-31T04:11:22.854Z,32.90
2018-07-31T04:13:52.020Z,32.80
2018-07-31T04:16:21.954Z,32.90
2018-07-31T04:21:18.578Z,33.40
2018-07-31T04:23:47.012Z,33.50
2018-07-31T04:26:15.460Z,33.30
2018-07-31T04:28:44.034Z,33.50
2018-07-31T04:33:41.824Z,32.70
2018-07-31T04:36:10.288Z,32.80
2018-07-31T04:38:38.920Z,32.80
2018-07-31T04:41:07.402Z,32.90
2018-07-31T04:43:35.884Z,32.70
2018-07-31T04:46:04.530Z,32.90
2018-07-31T04:48:32.924Z,33.30
2018-07-31T04:51:01.286Z,33.20
2018-07-31T04:53:29.844Z,33.70
2018-07-31T04:55:58.418Z,33.20
2018-07-31T04:58:27.188Z,33.20
2018-07-31T05:00:55.860Z,32.50
2018-07-31T05:03:24.369Z,32.20
2018-07-31T05:05:52.728Z,32.40
2018-07-31T05:08:21.267Z,33.50
2018-07-31T05:10:50.032Z,32.90
2018-07-31T05:13:18.496Z,32.30
2018-07-31T05:15:48.650Z,32.40
2018-07-31T05:18:17.777Z,32.40
2018-07-31T05:20:46.648Z,32.90
2018-07-31T05:23:17.630Z,32.50
2018-07-31T05:25:46.115Z,33.30
2018-07-31T05:28:14.591Z,33.30
2018-07-31T05:30:43.077Z,33.70
2018-07-31T05:33:11.566Z,33.50
2018-07-31T05:35:39.996Z,33.70
2018-07-31T05:38:08.415Z,34.00
2018-07-31T05:40:37.952Z,33.50
2018-07-31T05:43:06.643Z,32.90
2018-07-31T05:45:34.981Z,33.40
2018-07-31T05:48:03.450Z,33.20
2018-07-31T05:50:31.856Z,33.00
2018-07-31T05:53:00.323Z,34.30
2018-07-31T05:55:28.754Z,33.50
2018-07-31T05:57:57.511Z,34.40
2018-07-31T06:00:26.120Z,34.70
2018-07-31T06:02:54.627Z,34.90
2018-07-31T06:05:22.964Z,34.80
2018-07-31T06:07:51.558Z,34.90
2018-07-31T06:10:20.035Z,34.80
2018-07-31T06:12:48.580Z,34.80
2018-07-31T06:15:17.173Z,34.70
2018-07-31T06:17:45.772Z,34.70
2018-07-31T06:20:16.013Z,34.80
2018-07-31T06:22:46.174Z,34.80
2018-07-31T06:25:15.037Z,34.80
2018-07-31T06:27:43.749Z,35.50
2018-07-31T06:30:13.952Z,34.80
2018-07-31T06:32:43.085Z,34.70
2018-07-31T06:35:11.494Z,34.80
2018-07-31T06:37:40.245Z,34.70
2018-07-31T06:40:09.288Z,34.70
2018-07-31T06:42:37.842Z,34.70
2018-07-31T06:45:06.488Z,34.80
2018-07-31T06:47:34.886Z,34.70
2018-07-31T06:50:03.485Z,34.80
2018-07-31T06:52:31.936Z,35.00
2018-07-31T06:55:00.580Z,35.40
2018-07-31T06:57:29.023Z,35.50
2018-07-31T06:59:57.751Z,35.60
2018-07-31T07:02:26.183Z,35.50
2018-07-31T07:04:54.706Z,35.50
2018-07-31T07:07:23.199Z,35.40
2018-07-31T07:09:51.630Z,35.20
2018-07-31T07:12:20.203Z,35.20
2018-07-31T07:14:48.582Z,35.00
2018-07-31T07:17:17.214Z,35.00
2018-07-31T07:19:45.678Z,34.90
2018-07-31T07:22:14.174Z,34.80
2018-07-31T07:24:42.747Z,34.80
2018-07-31T07:27:11.245Z,34.60
2018-07-31T07:29:39.567Z,34.60
2018-07-31T07:32:07.912Z,34.50
2018-07-31T07:34:36.312Z,34.40
2018-07-31T07:37:04.997Z,34.60
2018-07-31T07:39:33.387Z,34.50
2018-07-31T07:42:01.941Z,34.30
2018-07-31T07:44:30.540Z,34.40
2018-07-31T07:46:58.940Z,34.40
2018-07-31T07:49:27.334Z,34.30
2018-07-31T07:51:55.807Z,34.30
2018-07-31T07:54:24.332Z,34.80
2018-07-31T07:56:52.708Z,34.30
2018-07-31T07:59:21.274Z,34.30
2018-07-31T08:01:49.796Z,34.30
2018-07-31T08:04:18.153Z,35.00
2018-07-31T08:06:46.529Z,34.20
2018-07-31T08:09:15.047Z,34.80
2018-07-31T08:11:43.702Z,35.20
2018-07-31T08:14:12.221Z,35.30
2018-07-31T08:16:40.734Z,35.20
2018-07-31T08:19:09.284Z,35.50
2018-07-31T08:21:37.748Z,35.70
2018-07-31T08:24:06.277Z,35.80
2018-07-31T08:26:34.855Z,35.70
2018-07-31T08:29:03.328Z,35.70
2018-07-31T08:31:31.737Z,35.70
2018-07-31T08:34:00.147Z,35.70
2018-07-31T08:36:28.716Z,35.70
2018-07-31T08:38:57.446Z,35.70
2018-07-31T08:41:26.002Z,35.70
2018-07-31T08:43:54.458Z,35.80
2018-07-31T08:46:22.892Z,35.80
2018-07-31T08:48:51.392Z,35.60
2018-07-31T08:51:19.825Z,35.60
2018-07-31T08:53:48.348Z,35.60
2018-07-31T08:56:16.726Z,35.60
2018-07-31T08:58:45.324Z,35.70
2018-07-31T09:01:13.833Z,35.70
2018-07-31T09:03:42.283Z,35.70
2018-07-31T09:06:10.730Z,35.70
2018-07-31T09:08:39.197Z,35.70
2018-07-31T09:11:07.549Z,35.70
2018-07-31T09:13:36.015Z,35.70
2018-07-31T09:16:04.552Z,36.00
2018-07-31T09:18:33.172Z,35.80
2018-07-31T09:21:01.545Z,35.80
2018-07-31T09:23:30.071Z,35.70
2018-07-31T09:26:01.287Z,35.70
2018-07-31T09:28:29.972Z,35.60
2018-07-31T09:31:03.853Z,35.70
2018-07-31T09:33:32.145Z,35.60
2018-07-31T09:36:00.531Z,35.50
2018-07-31T09:38:28.920Z,35.60
2018-07-31T09:40:57.502Z,35.60
2018-07-31T09:43:25.905Z,35.70
2018-07-31T09:45:54.392Z,35.60
2018-07-31T09:48:22.801Z,35.70
2018-07-31T09:50:51.357Z,35.70
2018-07-31T09:53:19.841Z,35.60
2018-07-31T09:55:48.257Z,35.60
2018-07-31T09:58:16.673Z,35.50
2018-07-31T10:00:50.457Z,35.50
2018-07-31T10:03:19.013Z,35.50
2018-07-31T10:05:47.462Z,35.50
2018-07-31T10:08:21.241Z,35.40
2018-07-31T10:10:50.875Z,35.40
2018-07-31T10:13:19.513Z,36.00
2018-07-31T10:15:48.058Z,35.30
2018-07-31T10:18:16.710Z,35.30
2018-07-31T10:20:45.008Z,35.30
2018-07-31T10:23:13.565Z,35.30
2018-07-31T10:25:41.991Z,35.40
2018-07-31T10:28:10.465Z,35.30
2018-07-31T10:30:39.012Z,35.30
2018-07-31T10:35:35.901Z,35.40
2018-07-31T10:38:04.447Z,35.40
2018-07-31T10:40:33.052Z,35.40
2018-07-31T10:43:01.438Z,35.50
2018-07-31T10:45:30.037Z,35.50
2018-07-31T10:47:58.527Z,35.30
2018-07-31T10:50:26.851Z,35.30
2018-07-31T10:52:55.223Z,35.40
2018-07-31T10:55:23.653Z,35.50
2018-07-31T10:57:52.063Z,36.30
2018-07-31T11:00:20.691Z,35.40
2018-07-31T11:02:49.068Z,35.40
2018-07-31T11:07:45.657Z,35.40
2018-07-31T11:10:14.477Z,35.40
2018-07-31T11:12:42.901Z,35.70
2018-07-31T11:15:11.357Z,36.60
2018-07-31T11:17:39.738Z,37.80
2018-07-31T11:20:08.269Z,37.60
2018-07-31T11:22:36.756Z,38.20
2018-07-31T11:25:05.973Z,37.90
2018-07-31T11:27:34.415Z,37.30
2018-07-31T11:30:02.875Z,37.20
2018-07-31T11:32:31.492Z,37.20
2018-07-31T11:34:59.958Z,37.10
2018-07-31T11:37:28.479Z,37.20
2018-07-31T11:39:56.870Z,37.00
2018-07-31T11:42:25.339Z,37.00
2018-07-31T11:44:53.754Z,37.60
2018-07-31T11:47:22.223Z,36.80
2018-07-31T11:49:50.753Z,36.60
2018-07-31T11:52:19.214Z,36.70
2018-07-31T11:54:47.738Z,36.70
2018-07-31T11:57:16.123Z,36.50
2018-07-31T11:59:44.725Z,36.50
2018-07-31T12:02:13.195Z,36.50
2018-07-31T12:04:41.889Z,36.40
2018-07-31T12:07:10.637Z,36.40
2018-07-31T12:09:39.499Z,36.40
2018-07-31T12:12:08.846Z,36.30
2018-07-31T12:14:37.396Z,36.30
2018-07-31T12:17:05.878Z,36.40
2018-07-31T12:19:34.346Z,36.20
2018-07-31T12:22:02.958Z,36.40
2018-07-31T12:24:31.374Z,36.20
2018-07-31T12:26:59.792Z,36.20
2018-07-31T12:29:28.279Z,36.20
2018-07-31T12:31:56.763Z,36.20
2018-07-31T12:34:25.247Z,36.20
2018-07-31T12:36:53.764Z,36.30
2018-07-31T12:39:22.110Z,36.20
2018-07-31T12:41:50.473Z,36.20
2018-07-31T12:44:18.870Z,36.30
2018-07-31T12:46:47.364Z,36.20
2018-07-31T12:49:15.841Z,36.20
2018-07-31T12:51:44.339Z,36.20
2018-07-31T12:54:13.075Z,36.20
2018-07-31T12:56:41.493Z,36.00
2018-07-31T12:59:09.890Z,36.10
2018-07-31T13:01:38.428Z,36.10
2018-07-31T13:04:06.856Z,36.00
2018-07-31T13:06:35.287Z,36.10
2018-07-31T13:09:04.906Z,36.00
2018-07-31T13:11:33.378Z,36.00
2018-07-31T13:14:01.771Z,36.00
2018-07-31T13:16:30.364Z,36.10
2018-07-31T13:18:59.008Z,36.20
2018-07-31T13:21:27.560Z,36.00
2018-07-31T13:23:55.972Z,36.10
2018-07-31T13:26:24.311Z,36.10
2018-07-31T13:28:52.801Z,36.00
2018-07-31T13:31:21.371Z,36.00
2018-07-31T13:33:49.911Z,36.10
2018-07-31T13:36:18.327Z,36.00
2018-07-31T13:38:46.715Z,35.90
2018-07-31T13:41:15.072Z,35.90
2018-07-31T13:43:43.600Z,36.00
2018-07-31T13:46:11.933Z,35.90
2018-07-31T13:48:40.455Z,36.60
2018-07-31T13:51:08.995Z,36.00
2018-07-31T13:53:37.381Z,35.90
2018-07-31T13:56:06.311Z,35.80
2018-07-31T13:58:34.772Z,35.80
2018-07-31T14:01:03.348Z,36.00
2018-07-31T14:03:32.386Z,36.30
2018-07-31T14:06:00.887Z,35.60
2018-07-31T14:08:29.658Z,35.80
2018-07-31T14:10:58.274Z,35.90
2018-07-31T14:13:26.772Z,35.90
2018-07-31T14:15:55.120Z,36.00
2018-07-31T14:18:23.614Z,36.00
2018-07-31T14:20:52.156Z,35.90
2018-07-31T14:23:20.682Z,36.00
2018-07-31T14:25:49.126Z,35.90
2018-07-31T14:28:17.684Z,36.00
2018-07-31T14:30:46.034Z,35.90
2018-07-31T14:35:42.767Z,35.90
2018-07-31T14:38:11.338Z,35.90
2018-07-31T14:40:39.816Z,35.90
2018-07-31T14:43:08.331Z,35.90
2018-07-31T14:45:36.814Z,35.80
2018-07-31T14:48:05.260Z,35.90
2018-07-31T14:50:33.854Z,35.80
2018-07-31T14:53:02.350Z,35.80
2018-07-31T14:55:30.846Z,35.80
2018-07-31T14:57:59.486Z,35.80
2018-07-31T15:00:27.938Z,35.90
2018-07-31T15:02:56.339Z,35.80
2018-07-31T15:05:24.770Z,35.70
2018-07-31T15:07:53.184Z,35.70
2018-07-31T15:10:21.785Z,35.70
2018-07-31T15:12:50.233Z,35.60
2018-07-31T15:15:18.772Z,35.80
2018-07-31T15:17:47.306Z,35.70
2018-07-31T15:20:15.698Z,35.70
2018-07-31T15:22:44.202Z,35.70
2018-07-31T15:25:12.607Z,35.80
2018-07-31T15:27:41.181Z,35.80
2018-07-31T15:30:09.620Z,35.80
2018-07-31T15:32:38.117Z,36.00
2018-07-31T15:35:06.718Z,35.70
2018-07-31T15:37:35.086Z,35.80
2018-07-31T15:40:03.617Z,35.80
2018-07-31T15:42:32.164Z,35.80
2018-07-31T15:45:00.585Z,35.50
2018-07-31T15:47:29.175Z,35.50
2018-07-31T15:49:57.569Z,35.50
2018-07-31T15:52:25.966Z,36.00
2018-07-31T15:54:54.383Z,35.30
2018-07-31T15:57:22.898Z,35.50
2018-07-31T15:59:51.400Z,35.50
2018-07-31T16:02:19.804Z,35.90
2018-07-31T16:04:48.203Z,35.80
2018-07-31T16:07:16.614Z,34.80
2018-07-31T16:09:45.092Z,33.80
2018-07-31T16:12:13.562Z,33.00
2018-07-31T16:14:42.156Z,33.00
2018-07-31T16:17:10.721Z,33.00
2018-07-31T16:19:39.290Z,33.00
2018-07-31T16:22:07.736Z,33.00
2018-07-31T16:24:36.117Z,33.00
2018-07-31T16:27:04.574Z,33.00
2018-07-31T16:29:33.560Z,32.10
2018-07-31T16:32:02.106Z,31.40
2018-07-31T16:34:30.704Z,31.90
2018-07-31T16:36:59.060Z,31.30
2018-07-31T16:39:27.528Z,30.80
2018-07-31T16:41:55.924Z,30.00
2018-07-31T16:44:24.354Z,30.40
2018-07-31T16:46:52.738Z,30.10
2018-07-31T16:49:21.157Z,30.10
2018-07-31T16:51:49.716Z,30.20
2018-07-31T16:54:18.168Z,30.30
2018-07-31T16:56:46.665Z,29.90
2018-07-31T16:59:15.118Z,29.90
2018-07-31T17:01:43.724Z,29.90
2018-07-31T17:04:12.077Z,29.90
2018-07-31T17:09:08.784Z,30.20
2018-07-31T17:11:37.269Z,30.60
2018-07-31T17:14:05.866Z,31.00
2018-07-31T17:16:34.732Z,31.10
2018-07-31T17:19:03.248Z,31.00
2018-07-31T17:21:32.060Z,31.90
2018-07-31T17:24:00.490Z,32.40
2018-07-31T17:26:28.974Z,32.40
2018-07-31T17:28:57.449Z,33.00
2018-07-31T17:31:26.149Z,33.00
2018-07-31T17:33:54.560Z,33.00
2018-07-31T17:36:23.080Z,33.00
2018-07-31T17:38:51.618Z,33.00
2018-07-31T17:41:20.168Z,33.00
2018-07-31T17:43:48.608Z,33.00
2018-07-31T17:46:17.165Z,33.00
2018-07-31T17:48:45.721Z,33.00
2018-07-31T17:51:14.144Z,33.00
2018-07-31T17:53:42.532Z,33.00
2018-07-31T17:56:11.136Z,33.00
2018-07-31T17:58:39.608Z,33.00
2018-07-31T18:01:07.981Z,33.00
2018-07-31T18:03:36.457Z,33.00
2018-07-31T18:06:05.027Z,33.00
2018-07-31T18:08:34.575Z,33.70
2018-07-31T18:11:03.080Z,33.00
2018-07-31T18:13:31.607Z,33.00
2018-07-31T18:16:00.079Z,33.00
2018-07-31T18:18:28.603Z,33.20
2018-07-31T18:20:57.182Z,34.60
2018-07-31T18:23:25.597Z,34.10
2018-07-31T18:25:54.016Z,34.10
2018-07-31T18:28:22.531Z,34.10
2018-07-31T18:30:51.047Z,34.30
2018-07-31T18:33:19.560Z,34.40
2018-07-31T18:35:48.691Z,34.70
2018-07-31T18:38:17.125Z,34.80
2018-07-31T18:40:45.572Z,34.40
2018-07-31T18:43:14.111Z,34.20
2018-07-31T18:45:42.500Z,34.40
2018-07-31T18:48:11.369Z,34.40
2018-07-31T18:50:40.798Z,34.80
2018-07-31T18:53:09.212Z,34.40
2018-07-31T18:55:37.627Z,34.50
2018-07-31T18:58:06.037Z,34.50
2018-07-31T19:00:34.419Z,34.70
2018-07-31T19:03:02.860Z,34.80
2018-07-31T19:05:31.327Z,34.80
2018-07-31T19:07:59.818Z,34.90
2018-07-31T19:10:28.203Z,34.90
2018-07-31T19:12:56.757Z,35.10
2018-07-31T19:15:25.246Z,35.10
2018-07-31T19:17:53.691Z,35.10
2018-07-31T19:20:22.146Z,34.90
2018-07-31T19:22:50.614Z,33.20
2018-07-31T19:27:47.450Z,33.80
2018-07-31T19:30:15.818Z,32.40
2018-07-31T19:32:44.435Z,31.80
2018-07-31T19:35:12.833Z,31.30
2018-07-31T19:37:41.455Z,31.20
2018-07-31T19:40:10.064Z,31.00
2018-07-31T19:42:38.587Z,30.60
2018-07-31T19:45:06.969Z,30.50
2018-07-31T19:47:35.498Z,30.30
2018-07-31T19:50:04.011Z,30.50
2018-07-31T19:52:32.799Z,30.10
2018-07-31T19:55:01.456Z,29.90
2018-07-31T19:57:29.951Z,30.50
2018-07-31T19:59:58.350Z,31.20
2018-07-31T20:02:26.774Z,30.30
2018-07-31T20:04:55.190Z,31.20
2018-07-31T20:07:23.569Z,30.30
2018-07-31T20:09:52.025Z,30.30
2018-07-31T20:12:20.666Z,30.60
2018-07-31T20:14:49.052Z,30.60
2018-07-31T20:17:17.615Z,31.00
2018-07-31T20:19:46.137Z,29.80
2018-07-31T20:22:14.678Z,29.60
2018-07-31T20:24:43.192Z,29.20
2018-07-31T20:27:11.845Z,29.10
2018-07-31T20:29:41.072Z,28.50
2018-07-31T20:32:09.594Z,28.40
2018-07-31T20:37:06.310Z,29.90
2018-07-31T20:39:34.803Z,30.30
2018-07-31T20:42:03.512Z,30.80
2018-07-31T20:44:31.975Z,31.30
2018-07-31T20:47:00.513Z,31.00
2018-07-31T20:49:28.970Z,31.40
2018-07-31T20:51:57.407Z,31.10
2018-07-31T20:54:25.844Z,30.50
2018-07-31T20:56:54.408Z,31.40
2018-07-31T20:59:22.930Z,31.00
2018-07-31T21:01:51.363Z,31.90
2018-07-31T21:04:19.776Z,31.80
2018-07-31T21:06:48.538Z,31.30
2018-07-31T21:09:20.769Z,31.30
2018-07-31T21:11:50.178Z,31.60
2018-07-31T21:14:18.962Z,31.90
2018-07-31T21:16:47.349Z,31.00
2018-07-31T21:21:44.168Z,31.60
2018-07-31T21:24:12.628Z,31.30
2018-07-31T21:26:41.024Z,30.70
2018-07-31T21:29:09.480Z,30.80
2018-07-31T21:31:38.018Z,30.50
2018-07-31T21:34:06.729Z,31.00
2018-07-31T21:36:35.081Z,31.20
2018-07-31T21:39:03.546Z,31.20
2018-07-31T21:41:31.986Z,31.20
2018-07-31T21:44:00.448Z,31.20
2018-07-31T21:46:29.979Z,30.70
2018-07-31T21:48:58.386Z,31.00
2018-07-31T21:51:26.850Z,31.00
2018-07-31T21:53:55.480Z,31.10
2018-07-31T21:56:23.934Z,31.00
2018-07-31T21:58:52.593Z,31.10
2018-07-31T22:01:21.139Z,31.60
2018-07-31T22:03:49.711Z,32.00
2018-07-31T22:06:18.067Z,32.00
2018-07-31T22:11:14.843Z,31.00
2018-07-31T22:13:43.348Z,31.30
2018-07-31T22:16:11.699Z,30.80
2018-07-31T22:18:40.113Z,31.90
2018-07-31T22:21:08.487Z,30.90
2018-07-31T22:23:36.919Z,31.10
2018-07-31T22:26:05.318Z,30.80
2018-07-31T22:28:33.808Z,31.80
2018-07-31T22:31:02.225Z,31.30
2018-07-31T22:33:30.576Z,31.00
2018-07-31T22:35:58.993Z,31.40
2018-07-31T22:38:27.363Z,31.60
2018-07-31T22:40:55.837Z,30.80
2018-07-31T22:43:24.220Z,32.00
2018-07-31T22:45:52.570Z,33.20
2018-07-31T22:48:25.000Z,32.40
2018-07-31T22:50:53.368Z,32.10
2018-07-31T22:53:21.784Z,31.90
2018-07-31T22:55:50.264Z,32.10
2018-07-31T22:58:18.768Z,31.70
2018-07-31T23:00:47.388Z,32.80
2018-07-31T23:03:15.808Z,32.10
2018-07-31T23:05:44.248Z,31.70
2018-07-31T23:08:12.676Z,32.00
2018-07-31T23:10:41.094Z,31.70
2018-07-31T23:15:40.612Z,32.80
2018-07-31T23:18:08.982Z,32.70
2018-07-31T23:20:37.623Z,32.90
2018-07-31T23:23:06.157Z,32.80
2018-07-31T23:25:34.586Z,32.90
2018-07-31T23:28:02.957Z,32.80
2018-07-31T23:30:31.396Z,32.80
2018-07-31T23:32:59.790Z,31.90
2018-07-31T23:35:28.201Z,32.70
2018-07-31T23:37:56.795Z,32.70
2018-07-31T23:40:25.231Z,32.70
2018-07-31T23:42:53.611Z,32.70
2018-07-31T23:45:22.033Z,32.60
2018-07-31T23:47:50.387Z,32.60
2018-07-31T23:50:18.951Z,32.60
2018-07-31T23:52:47.431Z,32.50
2018-07-31T23:55:15.869Z,32.50
2018-07-31T23:57:44.232Z,32.40
